Flight Track Log - Related Links

Times and Time Zones

All times are in EDT time to prevent confusion due to time zone crossing. See the UPS1304 flight status page for this flight to view local times or setup timezone preferences in your user account.

Time Position Orientation Groundspeed Altitude Reporting Facility
EDT Latitude Longitude Course Direction KTS MPH feet Rate Location/Type
Fri 04:05:40 AM 38.1700 -85.7390 199° South  Level FlightAware ADS-B
Fri 04:13:43 AM 38.1710 -85.7400 270° West 2 2 57 Level FlightAware ADS-B
Fri 04:16:00 AM 38.0320 -85.9744 233° Southwest  Level FlightAware Approximate
Fri 04:17:00 AM 37.9715 -86.0791 234° Southwest  Level FlightAware Approximate
Fri 04:18:00 AM 37.9124 -86.1849 233° Southwest  Level FlightAware Approximate
Fri 04:18:37 AM 38.1710 -85.7410 233° Southwest 23 26  Level FlightAware ADS-B
Fri 04:19:34 AM 38.1730 -85.7430 322° Northwest 16 18 133 Level FlightAware ADS-B
Fri 04:20:12 AM 38.1760 -85.7440 345° North 22 25 147 Level FlightAware ADS-B
Fri 04:21:09 AM 38.1810 -85.7450 351° North 32 37 159 Level FlightAware ADS-B
Fri 04:23:00 AM 38.0599 -85.9279 233° Southwest  Level FlightAware Approximate
Fri 04:23:14 AM 38.1830 -85.7460 233° Southwest 15 17  Level FlightAware ADS-B
Fri 04:23:43 AM 38.1840 -85.7460 360° North 14 16 252 Level FlightAware ADS-B
Fri 04:24:39 AM 38.1850 -85.7460 360° North 13 15 279 Level FlightAware ADS-B
Fri 04:25:57 AM 38.1850 -85.7470 270° West 12 14 348 Level FlightAware ADS-B
Fri 04:26:36 AM 38.1850 -85.7480 270° West 15 17 534 Level FlightAware ADS-B
Fri 04:27:33 AM 38.1840 -85.7480 180° South 21 24 729 Level FlightAware ADS-B
Fri 04:27:59 AM 38.1730 -85.7440 164° South 155 178 1,560 Level FlightAware ADS-B
Fri 04:28:23 AM 38.1550 -85.7390 168° South 169 194 1,300 2,483 Climbing FlightAware ADS-B
Fri 04:28:57 AM 38.1240 -85.7440 187° South 226 260 2,400 2,276 Climbing FlightAware ADS-B
Fri 04:29:21 AM 38.0960 -85.7500 190° South 258 297 3,500 3,500 Climbing FlightAware ADS-B
Fri 04:29:45 AM 38.0670 -85.7560 189° South 262 302 5,200 4,000 Climbing FlightAware ADS-B
Fri 04:30:03 AM 38.0490 -85.7700 211° Southwest 275 316 6,300 3,692 Climbing FlightAware ADS-B
Fri 04:30:11 AM 38.0440 -85.7800 238° Southwest 277 319 6,800 4,714 Climbing FlightAware ADS-B
Fri 04:30:31 AM 38.0390 -85.8130 259° West 271 312 8,500 3,955 Climbing FlightAware ADS-B
Fri 04:30:55 AM 38.0420 -85.8520 276° West 286 329 9,700 2,793 Climbing FlightAware ADS-B
Fri 04:31:29 AM 38.0260 -85.9070 250° West 309 356 11,200 2,100 Climbing FlightAware ADS-B
Fri 04:32:15 AM 37.9950 -85.9850 243° Southwest 377 434 12,500 1,833 Climbing FlightAware ADS-B
Fri 04:32:41 AM 37.9640 -86.0290 228° Southwest 415 478 13,400 2,914 Climbing FlightAware ADS-B
Fri 04:32:50 AM 37.9430 -86.0380 199° South 417 480 14,200 3,889 Climbing FlightAware ADS-B
Fri 04:33:35 AM 37.8540 -86.0330 177° South 442 509 16,900 2,971 Climbing FlightAware ADS-B
Fri 04:34:35 AM 37.7430 -86.0020 168° South 458 527 19,400 2,526 Climbing FlightAware ADS-B
Fri 04:35:10 AM 37.6560 -85.9810 169° South 490 564 20,900 2,550 Climbing FlightAware ADS-B
Fri 04:35:55 AM 37.5600 -85.9570 169° South 504 580 22,800 2,308 Climbing FlightAware ADS-B
Fri 04:36:54 AM 37.4120 -85.9190 168° South 531 611 24,900 2,345 Climbing FlightAware ADS-B
Fri 04:37:45 AM 37.2900 -85.8880 169° South 534 615 27,100 2,216 Climbing FlightAware ADS-B
Fri 04:38:45 AM 37.1460 -85.8510 168° South 532 612 29,000 1,140 Climbing FlightAware ADS-B
Fri 04:39:25 AM 37.0480 -85.8260 168° South 532 612 29,000  Level FlightAware ADS-B
Fri 04:39:37 AM 37.0161 -85.8182 169° South 533 613 29,000  Level FlightAware ADS-B
Fri 04:40:13 AM 36.9294 -85.7962 169° South 533 613 29,000  Level FlightAware ADS-B
Fri 04:41:16 AM 36.7850 -85.7590 168° South 531 611 29,000  Level FlightAware ADS-B
Fri 04:41:59 AM 36.6840 -85.7340 169° South 531 611 29,000  Level FlightAware ADS-B
Fri 04:42:15 AM 36.6348 -85.7213 168° South 531 611 29,000  Level FlightAware ADS-B
Fri 04:42:45 AM 36.5622 -85.7031 169° South 532 612 29,000  Level FlightAware ADS-B
Fri 04:43:15 AM 36.4898 -85.6848 169° South 533 613 29,000  Level FlightAware ADS-B
Fri 04:43:56 AM 36.3911 -85.6602 169° South 533 613 29,000  Level FlightAware ADS-B
Fri 04:44:39 AM 36.2860 -85.6340 169° South 533 613 29,000  Level FlightAware ADS-B
Fri 04:45:09 AM 36.2130 -85.6159 169° South 534 615 29,000  Level FlightAware ADS-B
Fri 04:45:40 AM 36.1381 -85.5973 169° South 532 612 29,000  Level FlightAware ADS-B
Fri 04:46:10 AM 36.0654 -85.5793 169° South 532 612 29,000  Level FlightAware ADS-B
Fri 04:46:43 AM 35.9878 -85.5597 168° South 533 613 29,000  Level FlightAware ADS-B
Fri 04:47:13 AM 35.9155 -85.5386 167° South 533 613 29,000  Level FlightAware ADS-B
Fri 04:47:43 AM 35.8425 -85.5171 167° South 533 613 29,000  Level FlightAware ADS-B
Fri 04:48:13 AM 35.7706 -85.4964 167° South 532 612 29,000  Level FlightAware ADS-B
Fri 04:48:43 AM 35.6987 -85.4757 167° South 531 611 29,000  Level FlightAware ADS-B
Fri 04:49:26 AM 35.5959 -85.4461 167° South 530 610 29,000  Level FlightAware ADS-B
Fri 04:50:03 AM 35.5080 -85.4208 167° South 529 609 29,000  Level FlightAware ADS-B
Fri 04:50:34 AM 35.4420 -85.4020 167° South 529 609 29,000  Level FlightAware ADS-B
Fri 04:50:46 AM 35.4057 -85.3915 167° South 529 609 29,000 -419 Level FlightAware ADS-B
Fri 04:51:17 AM 35.3326 -85.3707 167° South 529 609 28,700 -590 Descending FlightAware ADS-B
Fri 04:51:47 AM 35.2606 -85.3502 167° South 530 610 28,400 -600 Descending FlightAware ADS-B
Fri 04:52:17 AM 35.1884 -85.3297 167° South 528 608 28,100 -700 Descending FlightAware ADS-B
Fri 04:52:47 AM 35.1172 -85.3095 167° South 522 601 27,700 -689 Descending FlightAware ADS-B
Fri 04:53:18 AM 35.0461 -85.2896 167° South 515 593 27,400 -667 Descending FlightAware ADS-B
Fri 04:53:50 AM 34.9719 -85.2688 167° South 512 589 27,000 -774 Descending FlightAware ADS-B
Fri 04:54:20 AM 34.9021 -85.2491 167° South 511 588 26,600 -700 Descending FlightAware ADS-B
Fri 04:54:50 AM 34.8322 -85.2293 167° South 506 582 26,300 -689 Descending FlightAware ADS-B
Fri 04:55:21 AM 34.7631 -85.2101 167° South 501 577 25,900 -1,065 Descending FlightAware ADS-B
Fri 04:55:52 AM 34.6924 -85.1904 167° South 501 577 25,200 -1,967 Descending FlightAware ADS-B
Fri 04:56:22 AM 34.6252 -85.1715 167° South 491 565 23,900 -2,600 Descending FlightAware ADS-B
Fri 04:56:52 AM 34.5593 -85.1531 167° South 482 555 22,600 -2,557 Descending FlightAware ADS-B
Fri 04:57:23 AM 34.4931 -85.1348 167° South 473 544 21,300 -2,459 Descending FlightAware ADS-B
Fri 04:57:53 AM 34.4293 -85.1171 167° South 464 534 20,100 -2,500 Descending FlightAware ADS-B
Fri 04:58:23 AM 34.3669 -85.0997 167° South 453 521 18,800 -2,557 Descending FlightAware ADS-B
Fri 04:58:54 AM 34.3052 -85.0822 167° South 447 514 17,500 -2,462 Descending FlightAware ADS-B
Fri 04:59:41 AM 34.2130 -85.0570 167° South 431 496 15,600 -2,414 Descending FlightAware ADS-B
Fri 05:00:21 AM 34.1370 -85.0360 167° South 425 489 14,000 -1,596 Descending FlightAware ADS-B
Fri 05:01:15 AM 34.0490 -84.9860 155° Southeast 418 481 13,100 -1,837 Descending FlightAware ADS-B
Fri 05:01:59 AM 33.9780 -84.9140 140° Southeast 412 474 11,000 -1,977 Descending FlightAware ADS-B
Fri 05:02:43 AM 33.9100 -84.8600 147° Southeast 376 433 10,200 -714 Descending FlightAware ADS-B
Fri 05:03:23 AM 33.8560 -84.8170 147° Southeast 334 384 10,000 -265 Descending FlightAware ADS-B
Fri 05:03:51 AM 33.8220 -84.7900 147° Southeast 302 348 9,900 -1,179 Descending FlightAware ADS-B
Fri 05:04:19 AM 33.7900 -84.7640 146° Southeast 294 338 8,900 -1,929 Descending FlightAware ADS-B
Fri 05:04:47 AM 33.7580 -84.7400 148° Southeast 275 316 8,100 -2,690 Descending FlightAware ADS-B
Fri 05:05:17 AM 33.7270 -84.7140 145° Southeast 278 320 6,300 -3,414 Descending FlightAware ADS-B
Fri 05:05:45 AM 33.6970 -84.6910 147° Southeast 269 310 4,800 -2,550 Descending FlightAware ADS-B
Fri 05:05:57 AM 33.6850 -84.6790 140° Southeast 253 291 4,600 -429 Descending FlightAware ADS-B
Fri 05:06:13 AM 33.6740 -84.6630 130° Southeast 235 270 4,600 -545 Level FlightAware ADS-B
Fri 05:06:41 AM 33.6610 -84.6320 117° Southeast 231 266 4,200 -1,179 Descending FlightAware ADS-B
Fri 05:07:09 AM 33.6520 -84.5980 108° East 213 245 3,500 -1,385 Descending FlightAware ADS-B
Fri 05:07:33 AM 33.6500 -84.5710 95° East 191 220 3,000 -1,050 Descending FlightAware ADS-B
Fri 05:07:49 AM 33.6500 -84.5560 90° East 172 198 2,800 -818 Descending FlightAware ADS-B
Fri 05:08:17 AM 33.6500 -84.5310 90° East 157 181 2,400 -818 Descending FlightAware ADS-B
Fri 05:08:55 AM 33.6500 -84.4980 90° East 148 170 1,900 -750 Descending FlightAware ADS-B
Fri 05:09:29 AM 33.6490 -84.4710 93° East 150 173 1,500 -800 Descending FlightAware ADS-B
Fri 05:09:55 AM 33.6500 -84.4490 87° East 158 182 1,100 -923 Descending FlightAware ADS-B
Fri 05:10:21 AM 33.6500 -84.4270 90° East 135 155 -2,538 Descending FlightAware ADS-B
Fri 05:11:01 AM 33.6500 -84.4170 90° East 32 37  Level FlightAware ADS-B
Fri 05:11:31 AM 33.6510 -84.4190 301° West 23 26  Level FlightAware ADS-B
Fri 05:11:58 AM 33.6520 -84.4190 360° North 25 29  Level FlightAware ADS-B
Fri 05:12:24 AM 33.6540 -84.4190 360° North 25 29  Level FlightAware ADS-B
Fri 05:17:00 AM 33.6333 -84.4167 95° East  Level FlightAware Approximate
Fri 05:18:00 AM 33.6367 -84.4279 95° East  Level Estimated
Fri 05:19:00 AM 33.6367 -84.4279 95° East  Level Estimated

Login

Don't have an account? Register now (free) for customized features, flight alerts, and more!